This is the latest recevied weather packets stored in our database for station/object KE5VT. If no packets are shown the sender has not sent any weather packets the latest 10 day(s).
| Time | Temp. | Humidity | Pressure | Rain* | Wind** | Luminosity | Snow |
|---|---|---|---|---|---|---|---|
| 1787849890 | 28.89° C | 74% | 1012.8 hPa | 0 mm | - | 456 W/m² | - |
| 1787849590 | 28.33° C | 78% | 1012.9 hPa | 0 mm | - | 719 W/m² | - |
| 1787849289 | 28.89° C | 78% | 1013 hPa | 0 mm | - | 753 W/m² | - |
| 1787848988 | 28.89° C | 77% | 1013 hPa | 0 mm | - | 179 W/m² | - |
| 1787848683 | 27.78° C | 79% | 1013 hPa | 0 mm | - | 691 W/m² | - |
| 1787848379 | 27.78° C | 81% | 1013.2 hPa | 0 mm | - | 677 W/m² | - |
| 1787848079 | 27.78° C | 80% | 1013.1 hPa | 0 mm | - | 385 W/m² | - |
| 1787847778 | 27.78° C | 82% | 1013.2 hPa | 0 mm | - | 638 W/m² | - |
| 1787847474 | 27.22° C | 85% | 1013.2 hPa | 0 mm | - | 649 W/m² | - |
| 1787847169 | 27.22° C | 85% | 1013.2 hPa | 0 mm | - | 396 W/m² | - |
| 1787846866 | 27.78° C | 84% | 1013.2 hPa | 0 mm | - | 180 W/m² | - |
| 1787846566 | 27.78° C | 82% | 1013.3 hPa | 0 mm | - | 142 W/m² | - |
| 1787846261 | 27.78° C | 84% | 1013.2 hPa | 0 mm | - | 677 W/m² | - |
| 1787845957 | 26.67° C | 86% | 1013.2 hPa | 0 mm | - | 623 W/m² | - |
| 1787845653 | 25.56° C | 90% | 1013.2 hPa | 0 mm | - | 653 W/m² | - |
| 1787845352 | 25.56° C | 91% | 1013.4 hPa | 0 mm | - | 374 W/m² | - |
| 1787845048 | 25° C | 94% | 1013.3 hPa | 0 mm | - | 144 W/m² | - |
| 1787844743 | 24.44° C | 97% | 1013.3 hPa | 0 mm | - | 265 W/m² | - |
| 1787844442 | 23.89° C | 97% | 1013.3 hPa | 0 mm | - | 208 W/m² | - |
| 1787844137 | 23.89° C | 99% | 1013.4 hPa | 0 mm | - | 141 W/m² | - |
| 1787843832 | 23.33° C | 99% | 1013.3 hPa | 0 mm | - | 137 W/m² | - |
| 1787843527 | 23.33° C | 99% | 1013.4 hPa | 0 mm | - | 106 W/m² | - |
| 1787843224 | 23.33° C | 99% | 1013.2 hPa | 0 mm | - | 548 W/m² | - |
| 1787842923 | 23.89° C | 99% | 1013.1 hPa | 0 mm | - | 155 W/m² | - |
| 1787842618 | 23.89° C | 99% | 1013.2 hPa | 0 mm | - | 116 W/m² | - |
* Rain latest hour (hover to see other rain measurements)
** Current wind speed in m/s (hover to see current wind gust speed)